Time;durP1;ratioP1;P1;durP2;ratioP2;P2;SDS_P1;SDS_P2;PMS_P1;PMS_P2;Temp;Humidity;BMP_temperature;BMP_pressure;BME280_temperature;BME280_humidity;BME280_pressure;Samples;Min_cycle;Max_cycle;Signal;HPM_P1;HPM_P2
2024/01/12 00:00:41;;;;;;;11.38;4.28;;;3.70;99.90;;;;;;5036957;28;20485;-59
2024/01/12 00:03:07;;;;;;;16.10;5.07;;;3.70;99.90;;;;;;4964643;28;20037;-59
2024/01/12 00:05:33;;;;;;;12.93;4.90;;;3.70;99.90;;;;;;4967544;28;20099;-59
2024/01/12 00:07:58;;;;;;;10.48;5.60;;;3.70;99.90;;;;;;4964679;28;20043;-59
2024/01/12 00:10:24;;;;;;;18.13;5.43;;;3.70;99.90;;;;;;4967280;28;20053;-59
2024/01/12 00:12:50;;;;;;;14.02;4.80;;;3.70;99.90;;;;;;4973268;28;20046;-58
2024/01/12 00:15:16;;;;;;;13.75;4.65;;;3.60;99.90;;;;;;5034528;28;20065;-59
2024/01/12 00:17:41;;;;;;;9.50;4.10;;;3.60;99.90;;;;;;4972159;28;20047;-59
2024/01/12 00:20:08;;;;;;;12.27;5.75;;;3.60;99.90;;;;;;4966170;28;20057;-59
2024/01/12 00:22:33;;;;;;;14.38;4.97;;;3.60;99.90;;;;;;4981999;28;20038;-59
2024/01/12 00:24:59;;;;;;;12.00;5.07;;;3.60;99.90;;;;;;4971428;28;20295;-59
2024/01/12 00:27:25;;;;;;;17.58;6.53;;;3.60;99.90;;;;;;4952782;28;20494;-59
2024/01/12 00:29:51;;;;;;;13.93;6.70;;;3.60;99.90;;;;;;4966922;28;20129;-59
2024/01/12 00:32:16;;;;;;;16.70;6.95;;;3.60;99.90;;;;;;4960159;28;20112;-58
2024/01/12 00:34:42;;;;;;;15.57;6.15;;;3.60;99.90;;;;;;4969581;28;20073;-58
2024/01/12 00:37:08;;;;;;;12.85;5.00;;;3.50;99.90;;;;;;4975337;28;20043;-59
2024/01/12 00:39:35;;;;;;;15.88;6.40;;;3.50;99.90;;;;;;4970527;28;20059;-59
2024/01/12 00:42:01;;;;;;;16.50;6.10;;;3.50;99.90;;;;;;4966611;28;20035;-59
2024/01/12 00:44:26;;;;;;;11.15;5.38;;;3.50;99.90;;;;;;4965985;28;20305;-59
2024/01/12 00:46:52;;;;;;;20.83;6.50;;;3.40;99.90;;;;;;4970726;28;20038;-59
2024/01/12 00:49:18;;;;;;;13.77;6.15;;;3.50;99.90;;;;;;4972550;28;20042;-59
2024/01/12 00:51:44;;;;;;;8.90;4.97;;;3.50;99.90;;;;;;4966885;28;20527;-59
2024/01/12 00:54:10;;;;;;;15.77;5.90;;;3.40;99.90;;;;;;4976717;28;20030;-60
2024/01/12 00:56:36;;;;;;;14.15;6.20;;;3.40;99.90;;;;;;4969120;28;20034;-59
2024/01/12 00:59:03;;;;;;;13.10;5.82;;;3.40;99.90;;;;;;4984055;28;20497;-59
2024/01/12 01:01:29;;;;;;;14.05;5.88;;;3.40;99.90;;;;;;4971415;28;20049;-59
2024/01/12 01:03:55;;;;;;;19.50;6.28;;;3.40;99.90;;;;;;4956153;28;20050;-59
2024/01/12 01:06:20;;;;;;;9.40;4.90;;;3.30;99.90;;;;;;4953122;28;20439;-59
2024/01/12 01:08:48;;;;;;;10.95;5.15;;;3.30;99.90;;;;;;4961172;28;20456;-59
2024/01/12 01:11:14;;;;;;;8.88;4.38;;;3.30;99.90;;;;;;4973228;28;20051;-59
2024/01/12 01:13:41;;;;;;;19.33;6.93;;;3.30;99.90;;;;;;4952030;28;20038;-59
2024/01/12 01:16:07;;;;;;;13.73;4.80;;;3.30;99.90;;;;;;4965093;28;20409;-59
2024/01/12 01:18:33;;;;;;;11.73;4.85;;;3.20;99.90;;;;;;4966064;28;20480;-59
2024/01/12 01:20:59;;;;;;;13.63;5.68;;;3.20;99.90;;;;;;4946354;28;20123;-59
2024/01/12 01:23:25;;;;;;;13.18;5.55;;;3.20;99.90;;;;;;4988687;28;20044;-60
2024/01/12 01:25:51;;;;;;;16.48;5.45;;;3.30;99.90;;;;;;4978392;28;20039;-59
2024/01/12 01:28:17;;;;;;;12.43;5.43;;;3.20;99.90;;;;;;4965134;28;20086;-59
2024/01/12 01:30:44;;;;;;;17.65;5.57;;;3.20;99.90;;;;;;4967230;28;20112;-59
2024/01/12 01:33:09;;;;;;;15.50;6.07;;;3.20;99.90;;;;;;4966031;28;20439;-59
2024/01/12 01:35:35;;;;;;;19.10;6.03;;;3.20;99.90;;;;;;4980232;28;20045;-59
2024/01/12 01:38:01;;;;;;;13.80;5.80;;;3.30;99.90;;;;;;4977405;28;20413;-59
2024/01/12 01:40:27;;;;;;;16.05;7.47;;;3.40;99.90;;;;;;4960943;28;20036;-59
2024/01/12 01:42:53;;;;;;;16.85;7.20;;;3.40;99.90;;;;;;4980475;28;20035;-59
2024/01/12 01:45:19;;;;;;;17.15;6.18;;;3.30;99.90;;;;;;4968757;28;20061;-59
2024/01/12 01:47:46;;;;;;;16.48;6.68;;;3.40;99.90;;;;;;4969909;28;20061;-59
2024/01/12 01:50:14;;;;;;;15.52;6.40;;;3.50;99.90;;;;;;4965488;28;20038;-59
2024/01/12 01:52:41;;;;;;;13.85;6.82;;;3.60;99.90;;;;;;4964629;28;20065;-59
2024/01/12 01:55:08;;;;;;;15.05;6.13;;;3.60;99.90;;;;;;4955119;28;20616;-60
2024/01/12 01:57:35;;;;;;;11.40;6.18;;;3.60;99.90;;;;;;4967871;28;20062;-60
2024/01/12 02:00:02;;;;;;;16.02;7.18;;;3.60;99.90;;;;;;4973137;28;20511;-59
2024/01/12 02:02:28;;;;;;;18.48;7.03;;;3.70;99.90;;;;;;4969587;28;20298;-59
2024/01/12 02:04:58;;;;;;;14.88;6.22;;;3.70;99.90;;;;;;4974207;28;20207;-59
2024/01/12 02:07:24;;;;;;;14.90;6.35;;;3.70;99.90;;;;;;4967871;28;20049;-59
2024/01/12 02:09:49;;;;;;;13.95;7.90;;;3.70;99.90;;;;;;4966239;28;20042;-59
2024/01/12 02:12:15;;;;;;;14.52;6.85;;;3.80;99.90;;;;;;4973057;28;20057;-59
2024/01/12 02:14:41;;;;;;;17.98;7.97;;;3.80;99.90;;;;;;4979930;28;20034;-59
2024/01/12 02:17:07;;;;;;;15.48;6.45;;;3.70;99.90;;;;;;4964194;28;20050;-59
2024/01/12 02:19:33;;;;;;;11.02;5.18;;;3.70;99.90;;;;;;4975602;28;20161;-58
2024/01/12 02:21:58;;;;;;;14.32;5.80;;;3.70;99.90;;;;;;4950196;28;20561;-59
2024/01/12 02:24:24;;;;;;;16.70;7.43;;;3.70;99.90;;;;;;4962270;28;20047;-59
2024/01/12 02:26:50;;;;;;;14.43;6.07;;;3.60;99.90;;;;;;4965357;28;20133;-59
2024/01/12 02:29:16;;;;;;;11.88;7.05;;;3.60;99.90;;;;;;4969022;28;20445;-59
2024/01/12 02:31:43;;;;;;;14.45;5.82;;;3.60;99.90;;;;;;4962005;28;20042;-58
2024/01/12 02:34:08;;;;;;;11.00;5.80;;;3.50;99.90;;;;;;4964738;28;20046;-59
2024/01/12 02:36:34;;;;;;;12.10;6.20;;;3.50;99.90;;;;;;4951496;28;20050;-59
2024/01/12 02:39:00;;;;;;;10.00;5.45;;;3.50;99.90;;;;;;4950536;28;20187;-59
2024/01/12 02:41:25;;;;;;;21.13;6.93;;;3.50;99.90;;;;;;4985822;28;20039;-59
2024/01/12 02:43:52;;;;;;;14.05;6.20;;;3.50;99.90;;;;;;4952546;28;20488;-59
2024/01/12 02:46:18;;;;;;;13.55;5.68;;;3.40;99.90;;;;;;4971863;28;20091;-58
2024/01/12 02:48:43;;;;;;;18.15;6.25;;;3.30;99.90;;;;;;4965025;28;20050;-59
2024/01/12 02:51:09;;;;;;;12.20;5.40;;;3.30;99.90;;;;;;4950751;28;20038;-59
2024/01/12 02:53:35;;;;;;;11.25;5.38;;;3.30;99.90;;;;;;4982158;28;20057;-59
2024/01/12 02:56:00;;;;;;;8.50;5.97;;;3.30;99.90;;;;;;4946610;28;20410;-59
2024/01/12 02:58:26;;;;;;;12.25;5.50;;;3.20;99.90;;;;;;4965669;28;20176;-59
2024/01/12 03:00:52;;;;;;;10.45;5.38;;;3.20;99.90;;;;;;4968316;28;20056;-59
2024/01/12 03:03:19;;;;;;;17.80;6.13;;;3.10;99.90;;;;;;4976170;28;20038;-59
2024/01/12 03:05:45;;;;;;;9.18;5.07;;;3.10;99.90;;;;;;4948820;28;20379;-59
2024/01/12 03:08:11;;;;;;;10.75;4.85;;;3.00;99.90;;;;;;4979498;28;20041;-59
2024/01/12 03:10:37;;;;;;;13.30;5.90;;;3.00;99.90;;;;;;4949338;28;20053;-58
2024/01/12 03:13:03;;;;;;;13.82;5.45;;;3.00;99.90;;;;;;4966128;28;20042;-59
2024/01/12 03:15:29;;;;;;;15.93;5.00;;;2.80;99.90;;;;;;4969586;28;20487;-59
2024/01/12 03:17:58;;;;;;;10.77;4.78;;;2.80;99.90;;;;;;4967292;28;20307;-59
2024/01/12 03:20:24;;;;;;;11.30;5.20;;;2.70;99.90;;;;;;4981673;28;20137;-59
2024/01/12 03:22:50;;;;;;;9.05;5.65;;;2.70;99.90;;;;;;4941526;28;20055;-59
2024/01/12 03:25:16;;;;;;;9.65;5.32;;;2.60;99.90;;;;;;4968593;28;20046;-58
2024/01/12 03:27:42;;;;;;;7.65;4.55;;;2.60;99.90;;;;;;4968536;28;20511;-59
2024/01/12 03:30:08;;;;;;;12.82;5.03;;;2.60;99.90;;;;;;4965923;28;20038;-59
2024/01/12 03:32:33;;;;;;;13.68;5.22;;;2.50;99.90;;;;;;4986760;28;20040;-59
2024/01/12 03:34:59;;;;;;;14.90;4.93;;;2.50;99.90;;;;;;4969707;28;20067;-59
2024/01/12 03:37:25;;;;;;;12.32;5.50;;;2.40;99.90;;;;;;4968666;28;20036;-59
2024/01/12 03:39:51;;;;;;;12.40;5.43;;;2.40;99.90;;;;;;4962867;28;20053;-59
2024/01/12 03:42:17;;;;;;;11.52;5.13;;;2.40;99.90;;;;;;4954208;28;20662;-59
2024/01/12 03:44:43;;;;;;;9.90;5.43;;;2.40;99.90;;;;;;4983611;28;20081;-59
2024/01/12 03:47:08;;;;;;;13.15;5.55;;;2.50;99.90;;;;;;4981442;28;20070;-59
2024/01/12 03:49:34;;;;;;;14.30;6.93;;;2.50;99.90;;;;;;4969872;28;20125;-58
2024/01/12 03:52:00;;;;;;;12.00;5.57;;;2.50;99.90;;;;;;4947241;28;20035;-58
2024/01/12 03:54:25;;;;;;;12.45;5.65;;;2.50;99.90;;;;;;4971822;28;20036;-57
2024/01/12 03:56:52;;;;;;;8.45;3.92;;;2.50;99.90;;;;;;4951989;28;20049;-59
2024/01/12 03:59:18;;;;;;;10.57;4.82;;;2.50;99.90;;;;;;4982039;28;20506;-58
2024/01/12 04:01:44;;;;;;;10.30;5.25;;;2.50;99.90;;;;;;4965107;28;20038;-58
2024/01/12 04:04:11;;;;;;;16.27;6.18;;;2.60;99.90;;;;;;4965468;28;20064;-59
2024/01/12 04:06:37;;;;;;;12.90;4.88;;;2.60;99.90;;;;;;4950358;28;20045;-60
2024/01/12 04:09:02;;;;;;;11.63;5.22;;;2.60;99.90;;;;;;4949345;28;20505;-59
2024/01/12 04:11:28;;;;;;;8.95;4.05;;;2.60;99.90;;;;;;4980682;28;20043;-59
2024/01/12 04:13:54;;;;;;;13.07;5.53;;;2.60;99.90;;;;;;4961371;28;20068;-59
2024/01/12 04:16:20;;;;;;;13.75;5.45;;;2.70;99.90;;;;;;4943168;28;20042;-59
2024/01/12 04:18:46;;;;;;;10.13;5.18;;;2.70;99.90;;;;;;4961774;28;20126;-58
2024/01/12 04:21:12;;;;;;;11.32;5.28;;;2.70;99.90;;;;;;4964983;28;20329;-59
2024/01/12 04:23:39;;;;;;;9.35;5.20;;;2.70;99.90;;;;;;4964531;28;20102;-59
2024/01/12 04:26:06;;;;;;;13.43;5.70;;;2.70;99.90;;;;;;4956546;28;20620;-59
2024/01/12 04:28:32;;;;;;;15.95;6.45;;;2.70;99.90;;;;;;4964559;28;20833;-59
2024/01/12 04:30:58;;;;;;;12.63;5.57;;;2.70;99.90;;;;;;4945055;28;20117;-58
2024/01/12 04:33:25;;;;;;;9.85;5.18;;;2.80;99.90;;;;;;4966996;28;20420;-59
2024/01/12 04:35:51;;;;;;;7.40;4.50;;;2.70;99.90;;;;;;4962454;28;20096;-59
2024/01/12 04:38:17;;;;;;;14.98;5.72;;;2.70;99.90;;;;;;4965754;28;20117;-59
2024/01/12 04:40:43;;;;;;;14.00;5.97;;;2.80;99.90;;;;;;4945339;28;20359;-59
2024/01/12 04:43:08;;;;;;;11.60;5.90;;;2.80;99.90;;;;;;4966744;28;20038;-59
2024/01/12 04:45:34;;;;;;;21.17;8.07;;;2.80;99.90;;;;;;4952167;28;20043;-59
2024/01/12 04:48:00;;;;;;;19.40;6.15;;;2.90;99.90;;;;;;4964677;28;20114;-59
2024/01/12 04:50:25;;;;;;;14.70;7.00;;;3.00;99.90;;;;;;4964621;28;20512;-59
2024/01/12 04:52:52;;;;;;;18.50;7.18;;;3.00;99.90;;;;;;4947505;28;20129;-59
2024/01/12 04:55:18;;;;;;;21.60;6.63;;;3.10;99.90;;;;;;4961807;28;20049;-59
2024/01/12 04:57:44;;;;;;;17.33;5.75;;;3.20;99.90;;;;;;4964376;28;20540;-59
2024/01/12 05:00:10;;;;;;;14.63;5.00;;;3.20;99.90;;;;;;4963866;28;20133;-58
2024/01/12 05:02:36;;;;;;;24.55;6.60;;;3.30;99.90;;;;;;4955411;28;20057;-59
2024/01/12 05:05:04;;;;;;;15.23;5.13;;;3.30;99.90;;;;;;4966051;28;20046;-59
2024/01/12 05:07:30;;;;;;;20.10;5.40;;;3.40;99.90;;;;;;4949166;28;20100;-59
2024/01/12 05:09:56;;;;;;;25.13;5.90;;;3.40;99.90;;;;;;4966141;28;20049;-57
2024/01/12 05:12:22;;;;;;;18.25;5.95;;;3.40;99.90;;;;;;4968024;28;20057;-59
2024/01/12 05:14:48;;;;;;;18.80;5.43;;;3.50;99.90;;;;;;4980830;28;20260;-59
2024/01/12 05:17:14;;;;;;;16.00;5.18;;;3.50;99.90;;;;;;4983647;28;20432;-59
2024/01/12 05:19:40;;;;;;;19.55;5.88;;;3.50;99.90;;;;;;4965168;28;20126;-59
2024/01/12 05:22:07;;;;;;;17.25;5.50;;;3.50;99.90;;;;;;4963725;28;20039;-58
2024/01/12 05:24:33;;;;;;;15.02;4.90;;;3.50;99.90;;;;;;4941823;28;20053;-59
2024/01/12 05:26:59;;;;;;;16.52;6.47;;;3.50;99.90;;;;;;4957699;28;20057;-59
2024/01/12 05:29:25;;;;;;;16.15;5.47;;;3.40;99.90;;;;;;4960402;28;21335;-59
2024/01/12 05:31:51;;;;;;;23.60;6.22;;;3.40;99.90;;;;;;4966628;28;20170;-59
2024/01/12 05:34:19;;;;;;;25.65;5.80;;;3.40;99.90;;;;;;4977618;28;20042;-59
2024/01/12 05:36:45;;;;;;;19.02;5.82;;;3.40;99.90;;;;;;4968477;28;20038;-59
2024/01/12 05:39:11;;;;;;;26.63;6.22;;;3.40;99.90;;;;;;4944832;28;20515;-59
2024/01/12 05:41:36;;;;;;;23.60;5.95;;;3.40;99.90;;;;;;4972958;28;20034;-57
2024/01/12 05:44:02;;;;;;;17.08;5.28;;;3.50;99.90;;;;;;5050744;28;20119;-59
2024/01/12 05:46:31;;;;;;;25.05;5.78;;;3.50;99.90;;;;;;4983466;28;20047;-63
2024/01/12 05:48:57;;;;;;;24.20;5.38;;;3.50;99.90;;;;;;4978175;28;20264;-60
2024/01/12 05:51:23;;;;;;;27.50;7.00;;;3.50;99.90;;;;;;4982065;28;20074;-58
2024/01/12 05:53:49;;;;;;;19.20;4.65;;;3.50;99.90;;;;;;4967565;28;20080;-60
2024/01/12 05:56:14;;;;;;;24.50;5.95;;;3.50;99.90;;;;;;4969943;28;20178;-59
2024/01/12 05:58:40;;;;;;;22.80;5.60;;;3.50;99.90;;;;;;4961906;28;20080;-60
2024/01/12 06:01:06;;;;;;;22.63;4.90;;;3.50;99.90;;;;;;4966918;28;20038;-59
2024/01/12 06:03:32;;;;;;;16.20;4.85;;;3.50;99.90;;;;;;4957809;28;20045;-60
2024/01/12 06:05:57;;;;;;;21.52;5.35;;;3.50;99.90;;;;;;4968767;28;20505;-60
2024/01/12 06:08:23;;;;;;;22.42;6.35;;;3.50;99.90;;;;;;4965094;28;20035;-60
2024/01/12 06:10:52;;;;;;;22.77;4.97;;;3.50;99.90;;;;;;4982282;28;20425;-59
2024/01/12 06:13:18;;;;;;;20.98;5.57;;;3.50;99.90;;;;;;4950949;28;20127;-60
2024/01/12 06:15:43;;;;;;;21.73;5.18;;;3.50;99.90;;;;;;4963555;28;20038;-59
2024/01/12 06:18:09;;;;;;;14.63;3.92;;;3.50;99.90;;;;;;5050500;28;20555;-59
2024/01/12 06:20:35;;;;;;;27.52;4.90;;;3.50;99.90;;;;;;4962837;28;20058;-59
2024/01/12 06:23:01;;;;;;;17.33;4.03;;;3.50;99.90;;;;;;4949589;28;20026;-60
2024/01/12 06:25:29;;;;;;;29.23;5.78;;;3.50;99.90;;;;;;4943344;28;20461;-59
2024/01/12 06:27:54;;;;;;;26.50;5.47;;;3.60;99.90;;;;;;4950827;28;20046;-60
2024/01/12 06:30:20;;;;;;;20.73;4.82;;;3.50;99.90;;;;;;4973266;28;20111;-60
2024/01/12 06:32:46;;;;;;;27.83;4.85;;;3.60;99.90;;;;;;4969397;28;20042;-60
2024/01/12 06:35:12;;;;;;;13.57;3.95;;;3.60;99.90;;;;;;4980021;28;20527;-60
2024/01/12 06:37:38;;;;;;;19.92;4.32;;;3.70;99.90;;;;;;4959022;28;20047;-59
2024/01/12 06:40:05;;;;;;;21.15;4.80;;;3.70;99.90;;;;;;4982100;28;20111;-59
2024/01/12 06:42:31;;;;;;;20.85;5.00;;;3.70;99.90;;;;;;4962861;28;20095;-60
2024/01/12 06:44:57;;;;;;;26.20;6.60;;;3.80;99.90;;;;;;4957353;28;20080;-60
2024/01/12 06:47:23;;;;;;;27.67;5.43;;;3.80;99.90;;;;;;4964295;28;20378;-60
2024/01/12 06:49:48;;;;;;;24.88;4.53;;;3.80;99.90;;;;;;4946996;28;20283;-60
2024/01/12 06:52:14;;;;;;;18.67;4.57;;;3.90;99.90;;;;;;4950157;28;20117;-59
2024/01/12 06:54:44;;;;;;;16.40;3.63;;;4.00;99.90;;;;;;4970379;28;20082;-60
2024/01/12 06:57:10;;;;;;;19.58;3.80;;;4.00;99.90;;;;;;4968837;28;20566;-60
2024/01/12 06:59:36;;;;;;;22.92;4.70;;;4.10;99.90;;;;;;4960724;28;20080;-59
2024/01/12 07:02:02;;;;;;;22.80;4.13;;;4.10;99.90;;;;;;4981556;28;20095;-60
2024/01/12 07:04:28;;;;;;;20.25;3.63;;;4.10;99.90;;;;;;4969478;28;20050;-60
2024/01/12 07:06:54;;;;;;;23.13;3.63;;;4.20;99.90;;;;;;4974809;28;20103;-60
2024/01/12 07:09:20;;;;;;;23.90;3.63;;;4.20;99.90;;;;;;4978400;28;20056;-60
2024/01/12 07:11:46;;;;;;;14.98;4.13;;;4.20;99.90;;;;;;5049265;28;20046;-58
2024/01/12 07:14:14;;;;;;;21.73;3.53;;;4.30;99.90;;;;;;4966302;28;20088;-60
2024/01/12 07:16:40;;;;;;;25.45;3.58;;;4.30;99.90;;;;;;4960553;28;20100;-60
2024/01/12 07:19:09;;;;;;;22.80;3.63;;;4.40;99.90;;;;;;4949367;28;20034;-60
2024/01/12 07:21:35;;;;;;;16.33;3.08;;;4.40;99.90;;;;;;4960844;28;20050;-60
2024/01/12 07:24:01;;;;;;;23.02;3.85;;;4.40;99.90;;;;;;4944223;28;20035;-60
2024/01/12 07:26:27;;;;;;;14.05;2.90;;;4.40;99.90;;;;;;4965698;28;20634;-60
2024/01/12 07:28:53;;;;;;;14.50;3.30;;;4.50;99.90;;;;;;4966041;28;20525;-60
2024/01/12 07:31:19;;;;;;;15.73;3.10;;;4.50;99.90;;;;;;4943458;28;20042;-60
2024/01/12 07:33:44;;;;;;;21.88;3.03;;;4.50;99.90;;;;;;4941697;28;20026;-60
2024/01/12 07:36:10;;;;;;;14.77;3.58;;;4.60;99.90;;;;;;5045046;28;20170;-60
2024/01/12 07:38:36;;;;;;;17.55;4.47;;;4.60;99.90;;;;;;4953853;28;20050;-60
2024/01/12 07:41:02;;;;;;;13.32;2.67;;;4.70;99.90;;;;;;4975493;28;20038;-60
2024/01/12 07:43:30;;;;;;;16.30;3.47;;;4.60;99.90;;;;;;4964542;28;20050;-60
2024/01/12 07:45:56;;;;;;;18.95;3.63;;;4.60;99.90;;;;;;4964913;28;20046;-60
2024/01/12 07:48:22;;;;;;;19.42;4.32;;;4.70;99.90;;;;;;4978015;28;20504;-59
2024/01/12 07:50:48;;;;;;;19.60;4.28;;;4.70;99.90;;;;;;4963602;28;20057;-60
2024/01/12 07:53:14;;;;;;;15.60;4.13;;;4.70;99.90;;;;;;4996873;28;20036;-60
2024/01/12 07:55:39;;;;;;;19.10;3.40;;;4.70;99.90;;;;;;4950449;28;20133;-60
2024/01/12 07:58:05;;;;;;;17.58;3.10;;;4.70;99.90;;;;;;4961332;28;20568;-60
2024/01/12 08:00:31;;;;;;;12.85;3.70;;;4.70;99.90;;;;;;4950543;28;20315;-61
2024/01/12 08:02:56;;;;;;;19.83;4.25;;;4.70;99.90;;;;;;4962301;28;20090;-60
2024/01/12 08:05:23;;;;;;;14.85;3.55;;;4.70;99.90;;;;;;4964610;28;20137;-60
2024/01/12 08:07:49;;;;;;;16.40;3.60;;;4.70;99.90;;;;;;4981598;28;20417;-60
2024/01/12 08:10:16;;;;;;;22.75;4.03;;;4.70;99.90;;;;;;4984840;28;20043;-60
2024/01/12 08:12:42;;;;;;;20.08;3.22;;;4.80;99.90;;;;;;4942749;28;20045;-60
2024/01/12 08:15:11;;;;;;;20.73;3.85;;;4.80;99.90;;;;;;4965130;28;20038;-59
2024/01/12 08:17:40;;;;;;;14.02;3.42;;;4.70;99.90;;;;;;4964978;28;20042;-60
2024/01/12 08:20:07;;;;;;;20.77;4.18;;;4.80;99.90;;;;;;4977257;28;20401;-60
2024/01/12 08:22:33;;;;;;;30.67;4.05;;;4.80;99.90;;;;;;4962522;28;20043;-60
2024/01/12 08:24:59;;;;;;;20.92;3.90;;;4.80;99.90;;;;;;4966307;28;20057;-60
2024/01/12 08:27:25;;;;;;;17.30;3.88;;;4.80;99.90;;;;;;4962643;28;20066;-59
2024/01/12 08:29:51;;;;;;;20.65;4.00;;;4.90;99.90;;;;;;4975879;28;20050;-60
2024/01/12 08:32:16;;;;;;;21.58;3.78;;;4.80;99.90;;;;;;4959010;28;20038;-59
2024/01/12 08:34:42;;;;;;;15.77;3.75;;;4.80;99.90;;;;;;4967021;28;20042;-60
2024/01/12 08:37:08;;;;;;;20.55;3.78;;;4.90;99.90;;;;;;4978469;28;20043;-59
2024/01/12 08:39:34;;;;;;;21.45;3.20;;;4.80;99.90;;;;;;5049698;28;20046;-60
2024/01/12 08:42:00;;;;;;;17.67;3.40;;;4.90;99.90;;;;;;4949802;28;20034;-59
2024/01/12 08:44:25;;;;;;;18.00;2.78;;;4.80;99.90;;;;;;4969551;28;20096;-60
2024/01/12 08:46:53;;;;;;;20.42;4.07;;;4.90;99.90;;;;;;5047600;28;20046;-60
2024/01/12 08:49:19;;;;;;;14.68;3.67;;;4.90;99.90;;;;;;4969195;28;20049;-60
2024/01/12 08:51:44;;;;;;;26.52;4.50;;;4.90;99.90;;;;;;4962763;28;20485;-61
2024/01/12 08:54:10;;;;;;;17.17;3.17;;;4.90;99.90;;;;;;4986803;28;20058;-61
2024/01/12 08:56:36;;;;;;;19.80;3.83;;;4.80;99.90;;;;;;4950772;28;20050;-61
2024/01/12 08:59:02;;;;;;;20.08;4.22;;;4.90;99.90;;;;;;4968772;28;20306;-60
2024/01/12 09:01:28;;;;;;;17.90;4.25;;;4.90;99.90;;;;;;4952298;28;20075;-59
2024/01/12 09:03:54;;;;;;;23.58;4.85;;;4.90;99.90;;;;;;4977829;28;20485;-60
2024/01/12 09:06:23;;;;;;;20.08;3.70;;;5.00;99.90;;;;;;4966171;28;20046;-60
2024/01/12 09:08:49;;;;;;;12.25;2.60;;;5.00;99.90;;;;;;4968408;28;20041;-60
2024/01/12 09:11:15;;;;;;;17.02;4.10;;;5.00;99.90;;;;;;4963230;28;20046;-60
2024/01/12 09:13:41;;;;;;;18.08;3.20;;;5.00;99.90;;;;;;4948771;28;20034;-61
2024/01/12 09:16:09;;;;;;;21.20;3.13;;;5.00;99.90;;;;;;5053190;28;20048;-60
2024/01/12 09:18:35;;;;;;;13.80;2.60;;;5.00;99.90;;;;;;4967625;28;20084;-60
2024/01/12 09:21:01;;;;;;;15.63;3.10;;;5.00;99.90;;;;;;4969679;28;20050;-60
2024/01/12 09:23:27;;;;;;;21.42;2.88;;;5.00;99.90;;;;;;4961383;28;20413;-60
2024/01/12 09:25:54;;;;;;;17.65;3.08;;;5.10;99.90;;;;;;4981769;28;20044;-60
2024/01/12 09:28:20;;;;;;;17.77;3.38;;;5.10;99.90;;;;;;4984357;28;20053;-60
2024/01/12 09:30:49;;;;;;;17.75;3.72;;;5.10;99.90;;;;;;4969998;28;20053;-60
2024/01/12 09:33:15;;;;;;;19.38;4.13;;;5.10;99.90;;;;;;4963638;28;22553;-60
2024/01/12 09:35:41;;;;;;;15.68;2.85;;;5.10;99.90;;;;;;4986999;28;20045;-60
2024/01/12 09:38:07;;;;;;;17.45;3.03;;;5.20;99.90;;;;;;4985191;28;20489;-60
2024/01/12 09:40:33;;;;;;;17.13;3.83;;;5.20;99.90;;;;;;4968009;28;20497;-59
2024/01/12 09:43:00;;;;;;;22.35;3.47;;;5.20;99.90;;;;;;4968172;28;20073;-60
2024/01/12 09:45:27;;;;;;;22.20;4.18;;;5.20;99.90;;;;;;4964377;28;20125;-60
2024/01/12 09:47:53;;;;;;;19.77;4.18;;;5.30;99.90;;;;;;4954067;28;20045;-60
2024/01/12 09:50:22;;;;;;;14.48;3.28;;;5.30;99.90;;;;;;4972145;28;20050;-60
2024/01/12 09:52:49;;;;;;;23.08;3.45;;;5.30;99.90;;;;;;4972145;28;20130;-60
2024/01/12 09:55:15;;;;;;;22.27;4.05;;;5.30;99.90;;;;;;4988565;28;20034;-60
2024/01/12 09:57:44;;;;;;;21.30;4.93;;;5.30;99.90;;;;;;4970121;28;20046;-60
2024/01/12 10:00:11;;;;;;;17.23;2.88;;;5.40;99.90;;;;;;4979873;28;20046;-60
2024/01/12 10:02:37;;;;;;;14.65;2.92;;;5.40;99.90;;;;;;4967554;28;20097;-60
2024/01/12 10:05:02;;;;;;;18.50;3.67;;;5.40;99.90;;;;;;4972528;28;20144;-60
2024/01/12 10:07:31;;;;;;;20.60;3.58;;;5.40;99.90;;;;;;4962192;28;20124;-60
2024/01/12 10:09:57;;;;;;;23.92;4.30;;;5.40;99.90;;;;;;4963419;28;20050;-60
2024/01/12 10:12:23;;;;;;;17.58;3.20;;;5.40;99.90;;;;;;4937309;28;20057;-61
2024/01/12 10:15:02;;;;;;;21.33;3.17;;;5.40;99.90;;;;;;4986469;28;20046;-60
2024/01/12 10:17:29;;;;;;;18.70;4.68;;;5.30;99.90;;;;;;4964661;28;20050;-63
2024/01/12 10:19:55;;;;;;;16.42;3.00;;;5.30;99.90;;;;;;4962793;28;20046;-60
2024/01/12 10:22:21;;;;;;;14.15;3.80;;;5.30;99.90;;;;;;4974547;28;20034;-59
2024/01/12 10:24:55;;;;;;;21.35;3.35;;;5.30;99.90;;;;;;4976723;28;20718;-62
2024/01/12 10:27:21;;;;;;;24.20;3.75;;;5.30;99.90;;;;;;4969501;28;20042;-59
2024/01/12 10:29:46;;;;;;;15.85;3.22;;;5.20;99.90;;;;;;4965804;28;20053;-63
2024/01/12 10:32:12;;;;;;;23.60;4.55;;;5.20;99.90;;;;;;4996769;28;20032;-62
2024/01/12 10:34:39;;;;;;;20.17;4.30;;;5.20;99.90;;;;;;4961769;28;20083;-60
2024/01/12 10:37:07;;;;;;;20.67;3.83;;;5.20;99.90;;;;;;4965284;28;20049;-63
2024/01/12 10:39:35;;;;;;;21.63;3.90;;;5.30;99.90;;;;;;4958451;28;20053;-60
2024/01/12 10:42:05;;;;;;;18.40;3.97;;;5.30;99.90;;;;;;4968156;28;20058;-60
2024/01/12 10:44:34;;;;;;;17.35;3.58;;;5.30;99.90;;;;;;4969922;28;20046;-63
2024/01/12 10:47:05;;;;;;;18.38;3.08;;;5.30;99.90;;;;;;4963062;28;20065;-60
2024/01/12 10:49:42;;;;;;;21.90;3.65;;;5.30;99.90;;;;;;4966780;28;20049;-60
2024/01/12 10:52:25;;;;;;;15.73;3.60;;;5.30;99.90;;;;;;4963951;28;20050;-60
2024/01/12 10:54:59;;;;;;;19.30;3.83;;;5.30;99.90;;;;;;4954609;28;20038;-61
2024/01/12 10:57:26;;;;;;;17.60;3.63;;;5.30;99.90;;;;;;4961994;28;20448;-63
2024/01/12 10:59:53;;;;;;;20.40;4.53;;;5.30;99.90;;;;;;4949132;28;20394;-61
2024/01/12 11:02:20;;;;;;;29.20;4.70;;;5.30;99.90;;;;;;4966732;28;20046;-61
2024/01/12 11:04:46;;;;;;;25.73;4.75;;;5.30;99.90;;;;;;4941834;28;20043;-63
2024/01/12 11:07:14;;;;;;;20.90;4.03;;;5.30;99.90;;;;;;4959281;28;20049;-63
2024/01/12 11:09:40;;;;;;;19.20;3.97;;;5.30;99.90;;;;;;4960586;28;20472;-60
2024/01/12 11:12:12;;;;;;;22.55;4.28;;;5.30;99.90;;;;;;4964460;28;20049;-60
2024/01/12 11:14:40;;;;;;;30.23;4.90;;;5.30;99.90;;;;;;4965783;28;20034;-60
2024/01/12 11:17:06;;;;;;;21.10;4.60;;;5.40;99.90;;;;;;4955860;28;20045;-63
2024/01/12 11:19:32;;;;;;;19.40;3.60;;;5.40;99.90;;;;;;4964620;28;20038;-62
2024/01/12 11:22:16;;;;;;;23.80;4.50;;;5.40;99.90;;;;;;4968595;28;20038;-61
2024/01/12 11:24:45;;;;;;;25.33;4.90;;;5.40;99.90;;;;;;4965880;28;20056;-62
2024/01/12 11:27:12;;;;;;;24.35;3.97;;;5.50;99.90;;;;;;5008297;28;20046;-62
2024/01/12 11:29:39;;;;;;;17.58;3.75;;;5.50;99.90;;;;;;4973989;28;20320;-62
2024/01/12 11:32:05;;;;;;;28.48;5.07;;;5.40;99.90;;;;;;4981800;28;20232;-63
2024/01/12 11:34:37;;;;;;;29.55;5.10;;;5.40;99.90;;;;;;4955681;28;20044;-62
2024/01/12 11:37:08;;;;;;;20.87;3.73;;;5.40;99.90;;;;;;4965700;28;20482;-62
2024/01/12 11:39:37;;;;;;;21.70;3.88;;;5.40;99.90;;;;;;4965026;28;20335;-62
2024/01/12 11:42:05;;;;;;;24.25;3.80;;;5.50;99.90;;;;;;4960614;28;20042;-62
2024/01/12 11:44:35;;;;;;;27.25;5.30;;;5.50;99.90;;;;;;4953793;28;20054;-62
2024/01/12 11:47:01;;;;;;;34.55;6.38;;;5.50;99.90;;;;;;4978146;28;20035;-63
2024/01/12 11:49:30;;;;;;;29.38;9.05;;;5.50;99.90;;;;;;4976471;28;20446;-63
2024/01/12 11:52:06;;;;;;;20.95;5.60;;;5.60;99.90;;;;;;4966149;28;20038;-63
2024/01/12 11:54:31;;;;;;;28.05;7.45;;;5.60;99.90;;;;;;4979318;28;20104;-63
2024/01/12 11:56:57;;;;;;;23.75;5.07;;;5.60;99.90;;;;;;4963107;28;20038;-63
2024/01/12 11:59:23;;;;;;;30.17;5.93;;;5.70;99.90;;;;;;4963559;28;20062;-63
2024/01/12 12:01:48;;;;;;;22.85;5.60;;;5.70;99.90;;;;;;4985033;28;20042;-63
2024/01/12 12:04:17;;;;;;;26.42;5.25;;;5.60;99.90;;;;;;4973612;28;20039;-63
2024/01/12 12:06:47;;;;;;;22.58;5.97;;;5.60;99.90;;;;;;4965629;28;20506;-63
2024/01/12 12:09:13;;;;;;;26.50;6.32;;;5.60;99.90;;;;;;4965499;28;20038;-63
2024/01/12 12:11:39;;;;;;;21.73;5.30;;;5.60;99.90;;;;;;4976674;28;20034;-63
2024/01/12 12:14:05;;;;;;;24.85;4.82;;;5.60;99.90;;;;;;4968800;28;20182;-63
2024/01/12 12:16:31;;;;;;;28.15;4.53;;;5.60;99.90;;;;;;4975390;28;21397;-62
2024/01/12 12:18:56;;;;;;;22.88;4.38;;;5.60;99.90;;;;;;4962993;28;20046;-63
2024/01/12 12:21:22;;;;;;;18.52;3.63;;;5.60;99.90;;;;;;4964072;28;20035;-63
2024/01/12 12:23:48;;;;;;;19.75;4.72;;;5.60;99.90;;;;;;4981205;28;20121;-63
2024/01/12 12:26:14;;;;;;;22.23;3.83;;;5.60;99.90;;;;;;4968783;28;20040;-63
2024/01/12 12:28:40;;;;;;;27.23;4.75;;;5.70;99.90;;;;;;4963161;28;20046;-63
2024/01/12 12:31:10;;;;;;;22.27;4.35;;;5.70;99.90;;;;;;4944682;28;20344;-62
2024/01/12 12:33:35;;;;;;;17.90;4.07;;;5.70;99.90;;;;;;4965190;28;20341;-64
2024/01/12 12:36:09;;;;;;;24.42;4.30;;;5.70;99.90;;;;;;4960397;28;20045;-63
2024/01/12 12:38:39;;;;;;;20.20;3.72;;;5.70;99.90;;;;;;4969730;28;20039;-64
2024/01/12 12:41:08;;;;;;;18.90;3.55;;;5.80;99.90;;;;;;4956662;28;20077;-64
2024/01/12 12:43:35;;;;;;;18.30;3.50;;;5.70;99.90;;;;;;4949970;28;20039;-64